This is the latest recevied weather packets stored in our database for station/object N9OJR. If no packets are shown the sender has not sent any weather packets the latest 1 day(s).
| Time | Temp. | Humidity | Pressure | Rain* | Wind** | Luminosity | Snow |
|---|---|---|---|---|---|---|---|
| 1778018973 | 15° C | 95% | 1003.8 hPa | 0 mm | 0.45 m/s, 281° | 64 W/m² | - |
| 1778018670 | 15° C | 95% | 1004 hPa | 0 mm | 0 m/s | 38 W/m² | - |
| 1778018367 | 15.56° C | 95% | 1003.7 hPa | 0 mm | 0 m/s | 61 W/m² | - |
| 1778018065 | 15° C | 94% | 1003.4 hPa | 0 mm | 0 m/s | 62 W/m² | - |
| 1778017763 | 15° C | 94% | 1003.9 hPa | 0 mm | 0 m/s | 67 W/m² | - |
| 1778017461 | 15° C | 95% | 1004.1 hPa | 0 mm | 0 m/s | 74 W/m² | - |
| 1778017158 | 15° C | 95% | 1003.9 hPa | 0 mm | 0 m/s | 46 W/m² | - |
| 1778016855 | 15.56° C | 95% | 1003.8 hPa | 0 mm | 0 m/s | 37 W/m² | - |
| 1778016551 | 15.56° C | 94% | 1003.8 hPa | 0 mm | 0 m/s | 85 W/m² | - |
| 1778016248 | 15.56° C | 94% | 1003.5 hPa | 0 mm | 0.45 m/s, 276° | 47 W/m² | - |
| 1778015945 | 15° C | 94% | 1003.9 hPa | 0 mm | 0 m/s | 46 W/m² | - |
| 1778015642 | 15° C | 95% | 1003.9 hPa | 0 mm | 0.89 m/s, 304° | 70 W/m² | - |
| 1778015338 | 15.56° C | 95% | 1003.9 hPa | 0 mm | 0.89 m/s, 258° | 59 W/m² | - |
| 1778015036 | 15° C | 95% | 1003.9 hPa | 0 mm | 0.45 m/s, 283° | 72 W/m² | - |
| 1778014732 | 15.56° C | 96% | 1003.9 hPa | 0 mm | 0.45 m/s, 277° | 42 W/m² | - |
| 1778014431 | 15.56° C | 96% | 1004 hPa | 0 mm | 0 m/s | 68 W/m² | - |
| 1778014127 | 15.56° C | 95% | 1004 hPa | 0 mm | 0 m/s | 94 W/m² | - |
| 1778013825 | 15.56° C | 94% | 1004.2 hPa | 0 mm | 0.45 m/s, 254° | 87 W/m² | - |
| 1778013522 | 15.56° C | 93% | 1004.2 hPa | 0 mm | 0.45 m/s, 270° | 26 W/m² | - |
| 1778013218 | 16.11° C | 92% | 1004.2 hPa | 1.78 mm | 0.45 m/s, 299° | 36 W/m² | - |
| 1778012915 | 16.67° C | 89% | 1004.1 hPa | 1.78 mm | 1.34 m/s, 296° | 48 W/m² | - |
| 1778012611 | 16.67° C | 87% | 1004 hPa | 1.27 mm | 1.34 m/s, 256° | 12 W/m² | - |
| 1778012308 | 17.22° C | 84% | 1003.8 hPa | 1.27 mm | 0.45 m/s, 270° | 15 W/m² | - |
| 1778012005 | 17.78° C | 81% | 1004 hPa | 0 mm | 0 m/s | 16 W/m² | - |
| 1778011703 | 18.33° C | 76% | 1004 hPa | 0 mm | 0 m/s | 22 W/m² | - |
* Rain latest hour (hover to see other rain measurements)
** Current wind speed in m/s (hover to see current wind gust speed)